METAR Data
IDs: Format: Raw Decoded Include TAF

Data at: 1745 UTC 25 Mar 2019

KGVT 251730Z AUTO 33010G14KT 10SM CLR 20/10 A3022 RMK AO2
KGVT 251710Z AUTO 35012G15KT 10SM CLR 20/11 A3022 RMK AO2
KGVT 251650Z AUTO 01009G14KT 10SM CLR 19/11 A3022 RMK AO2
KGVT 251630Z AUTO 34010G15KT 10SM CLR 20/11 A3022 RMK AO2
KGVT 251610Z AUTO 34011KT 10SM CLR 19/10 A3021 RMK AO2
KGVT 251550Z AUTO 35011KT 10SM CLR 18/10 A3021 RMK AO2
KGVT 251530Z AUTO 36008KT 10SM CLR 18/11 A3020 RMK AO2
KGVT 251510Z AUTO 01008G14KT 10SM CLR 17/10 A3019 RMK AO2
KGVT 251450Z AUTO 01011G17KT 10SM CLR 17/10 A3018 RMK AO2
KGVT 251430Z AUTO 36010G17KT 10SM CLR 16/10 A3017 RMK AO2
KGVT 251410Z AUTO 35009KT 10SM CLR 16/10 A3016 RMK AO2
KGVT 251350Z AUTO 35009KT 10SM CLR 15/10 A3015 RMK AO2
KGVT 251330Z AUTO 36006KT 10SM CLR 14/10 A3014 RMK AO2
KGVT 251310Z AUTO 35005KT 10SM CLR 13/11 A3014 RMK AO2
KGVT 251250Z AUTO 36004KT 10SM CLR 13/10 A3013 RMK AO2
KGVT 251230Z AUTO 36003KT 10SM CLR 12/10 A3013 RMK AO2
KGVT 251210Z AUTO 36005KT 10SM CLR 12/10 A3012 RMK AO2
KGVT 251150Z AUTO 35007KT 10SM CLR 13/10 A3011 RMK AO2
KGVT 251130Z AUTO 36007KT 10SM CLR 14/10 A3010 RMK AO2
KGVT 251110Z AUTO 01008KT 10SM CLR 14/11 A3009 RMK AO2
KGVT 251050Z AUTO 01008KT 10SM CLR 15/11 A3008 RMK AO2
KGVT 251030Z AUTO 36009KT 10SM CLR 15/11 A3008 RMK AO2
KGVT 251010Z AUTO 36008KT 10SM CLR 15/12 A3007 RMK AO2
KGVT 250950Z AUTO 36006KT 10SM CLR 15/12 A3006 RMK AO2
KGVT 250930Z AUTO 36006KT 10SM CLR 15/12 A3006 RMK AO2
KGVT 250910Z AUTO 00000KT 10SM CLR 15/13 A3004 RMK AO2 LTG DSNT SE
KGVT 250850Z AUTO 00000KT 10SM CLR 16/13 A3004 RMK AO2
KGVT 250830Z AUTO 36004KT 10SM CLR 16/13 A3003 RMK AO2 LTG DSNT E
KGVT 250815Z AUTO 36005KT 10SM CLR 16/13 A3003 RMK AO2
KGVT 250750Z AUTO 36008KT 10SM VCTS CLR 17/14 A3002 RMK AO2 LTG DSNT E AND S
KGVT 250730Z AUTO 35008KT 10SM CLR 17/15 A3003 RMK AO2 LTG DSNT E THRU S
KGVT 250710Z AUTO 35011G17KT 10SM SCT033 18/15 A3002 RMK AO2 LTG DSNT E THRU S
KGVT 250650Z AUTO 35013G18KT 10SM BKN035 OVC044 18/16 A3001 RMK AO2 LTG DSNT E THRU S
KGVT 250630Z AUTO 34008KT 10SM SCT033 BKN039 OVC060 19/17 A3002 RMK AO2 LTG DSNT NE THRU SW
KGVT 250610Z AUTO 29005KT 10SM VCTS SCT039 BKN047 OVC060 19/17 A3002 RMK AO2 LTG DSNT E THRU SW
KGVT 250550Z AUTO 31004KT 10SM -VCTSRA SCT027 BKN047 OVC065 18/17 A3000 RMK AO2 P0002 LTG DSNT ALQS
KGVT 250530Z AUTO 34009KT 10SM -VCTSRA SCT019 BKN027 OVC044 19/17 A3001 RMK AO2 P0001 LTG DSNT NW THRU NE
KGVT 250515Z AUTO 32012G15KT 10SM SCT021 SCT030 OVC042 21/17 A3003 RMK AO2 LTG DSNT ALQS
KGVT 250455Z AUTO 31005KT 10SM TS BKN042 OVC050 20/18 A3002 RMK AO2 LTG DSNT ALQS
KGVT 250430Z AUTO 16005KT 10SM VCTS SCT050 SCT120 18/18 A2998 RMK AO2 LTG DSNT W THRU NE
KGVT 250410Z AUTO 00000KT 10SM SCT048 BKN055 BKN110 19/17 A2999 RMK AO2 LTG DSNT N AND W
KGVT 250350Z AUTO 17006KT 10SM SCT060 SCT065 SCT100 20/17 A2999 RMK AO2 P0008 LTG DSNT W AND NW
KGVT 250330Z AUTO 19005KT 10SM TS SCT022 SCT040 BKN060 20/17 A3001 RMK AO2 P0008 LTG DSNT E AND NW
KGVT 250310Z AUTO 00000KT 4SM +RA SCT025 BKN044 OVC080 19/17 A3001 RMK AO2 P0008 LTG DSNT ALQS
KGVT 250250Z AUTO 11005KT 10SM -VCTSRA SCT015 BKN044 OVC110 19/16 A3002 RMK AO2 P0055 LTG DSNT E SE AND W
KGVT 250230Z AUTO 10003G26KT 2 1/2SM -VCTSRA SCT006 BKN018 BKN033 18/15 A3001 RMK AO2 VIS 3/4V5 P0055 LTG DSNT ALQS
KGVT 250215Z AUTO 24018G28KT 1 3/4SM +TSRA SCT004 BKN029 OVC075 21/18 A3006 RMK AO2 P0036 LTG DSNT ALQS
KGVT 250150Z AUTO 00000KT 10SM VCTS BKN100 BKN120 22/18 A2999 RMK AO2 LTG DSNT SW THRU NW
KGVT 250130Z AUTO 17010KT 10SM -VCTSDZ SCT035 SCT048 BKN110 22/18 A2997 RMK AO2 LTG DSNT ALQS
KGVT 250115Z AUTO 18009G12KT 10SM -RA SCT033 SCT048 BKN120 22/18 A2996 RMK AO2 LTG DSNT SW THRU N
KGVT 250050Z AUTO 18014KT 10SM -RA SCT065 SCT080 BKN120 22/17 A2995 RMK AO2 LTG DSNT ALQS
KGVT 250030Z AUTO 19011KT 10SM -DZ CLR 23/17 A2997 RMK AO2 LTG DSNT SW THRU NW
KGVT 250010Z AUTO 17009KT 10SM -RA CLR 23/16 A2997 RMK AO2 LTG DSNT SW THRU N
KGVT 242350Z AUTO 18012KT 10SM VCTS CLR 23/16 A2996 RMK AO2 LTG DSNT W THRU NE
KGVT 242330Z AUTO 17011G14KT 10SM CLR 23/17 A2996 RMK AO2 LTG DSNT NW
KGVT 242310Z AUTO 17011KT 10SM CLR 24/17 A2996 RMK AO2 LTG DSNT W AND NW
KGVT 242250Z AUTO 17014G19KT 10SM SCT030 25/17 A2997 RMK AO2 LTG DSNT W AND NW
KGVT 242230Z AUTO 16014G18KT 10SM SCT030 SCT036 25/17 A2997 RMK AO2
KGVT 242210Z AUTO 17012G18KT 10SM SCT035 26/17 A2998 RMK AO2
KGVT 242150Z AUTO 17015KT 10SM SCT035 26/17 A2999 RMK AO2
KGVT 242130Z AUTO 18012KT 10SM BKN037 BKN044 27/16 A2999 RMK AO2
KGVT 242110Z AUTO 19011G16KT 10SM BKN037 27/16 A2999 RMK AO2
KGVT 242050Z AUTO 19012G15KT 10SM BKN035 26/16 A3000 RMK AO2
KGVT 242030Z AUTO 19011KT 10SM OVC035 27/16 A3000 RMK AO2
KGVT 242010Z AUTO 19014G18KT 10SM OVC035 26/16 A3000 RMK AO2
KGVT 241950Z AUTO 18014G17KT 10SM BKN035 25/16 A3000 RMK AO2
KGVT 241930Z AUTO 19014KT 10SM BKN035 26/16 A3001 RMK AO2
KGVT 241910Z AUTO 18012G18KT 10SM OVC033 26/17 A3002 RMK AO2
KGVT 241850Z AUTO 18011KT 10SM OVC033 25/17 A3002 RMK AO2
KGVT 241830Z AUTO 21010KT 10SM OVC033 25/17 A3003 RMK AO2
KGVT 241810Z AUTO 20014G17KT 10SM OVC033 25/17 A3004 RMK AO2
KGVT 241755Z AUTO 20009KT 10SM OVC031 25/16 A3004 RMK AO2
KGVT 241730Z AUTO 20010G15KT 10SM OVC029 25/16 A3006 RMK AO2
KGVT 241710Z AUTO 20010G15KT 10SM OVC025 24/17 A3006 RMK AO2
KGVT 241650Z AUTO 21012KT 10SM OVC025 23/16 A3007 RMK AO2
KGVT 241630Z AUTO 22011KT 10SM BKN021 OVC026 23/17 A3007 RMK AO2
KGVT 241610Z AUTO 19010KT 10SM OVC019 23/17 A3007 RMK AO2
KGVT 241550Z AUTO 21010G19KT 10SM OVC015 22/16 A3008 RMK AO2
KGVT 241530Z AUTO 20013KT 10SM OVC013 21/16 A3007 RMK AO2
KGVT 241510Z AUTO 20013G20KT 10SM OVC011 21/16 A3007 RMK AO2
KGVT 241450Z AUTO 19014KT 10SM OVC011 20/16 A3007 RMK AO2
KGVT 241430Z AUTO 20010G15KT 10SM OVC011 20/16 A3007 RMK AO2
KGVT 241410Z AUTO 20011G17KT 10SM OVC011 19/16 A3007 RMK AO2
KGVT 241350Z AUTO 17008KT 10SM OVC011 19/16 A3006 RMK AO2
KGVT 241330Z AUTO 17008KT 10SM OVC011 18/16 A3006 RMK AO2
KGVT 241315Z AUTO 17009KT 10SM OVC011 18/16 A3006 RMK AO2
KGVT 241250Z AUTO 17009KT 10SM BKN013 18/16 A3005 RMK AO2
KGVT 241230Z AUTO 18009KT 10SM BKN013 BKN019 18/16 A3004 RMK AO2
KGVT 241210Z AUTO 19010KT 10SM BKN016 OVC021 18/16 A3005 RMK AO2
KGVT 241150Z AUTO 18011G14KT 10SM OVC016 18/16 A3004 RMK AO2
KGVT 241130Z AUTO 19009KT 10SM OVC016 18/15 A3004 RMK AO2
KGVT 241110Z AUTO 17011KT 10SM OVC014 18/15 A3003 RMK AO2
KGVT 241050Z AUTO 18009KT 10SM OVC014 18/15 A3003 RMK AO2
KGVT 241030Z AUTO 18010KT 10SM BKN014 OVC035 18/15 A3003 RMK AO2
KGVT 241010Z AUTO 17009KT 10SM OVC014 18/15 A3003 RMK AO2
KGVT 240955Z AUTO 17009KT 10SM OVC016 18/15 A3003 RMK AO2
KGVT 240930Z AUTO 17009KT 10SM OVC016 18/15 A3004 RMK AO2
KGVT 240910Z AUTO 18008KT 10SM OVC016 18/15 A3004 RMK AO2
KGVT 240850Z AUTO 17009KT 10SM OVC018 18/15 A3004 RMK AO2
KGVT 240830Z AUTO 18009KT 10SM OVC018 18/15 A3004 RMK AO2
KGVT 240810Z AUTO 18009KT 10SM OVC018 18/15 A3005 RMK AO2
KGVT 240750Z AUTO 18009KT 10SM OVC018 18/15 A3005 RMK AO2
KGVT 240730Z AUTO 18010KT 10SM OVC020 18/15 A3005 RMK AO2 LTG DSNT NE
KGVT 240710Z AUTO 17008KT 10SM OVC020 18/15 A3006 RMK AO2
KGVT 240650Z AUTO 17009KT 10SM BKN022 BKN037 18/15 A3006 RMK AO2
KGVT 240630Z AUTO 17009KT 10SM SCT022 18/14 A3005 RMK AO2 LTG DSNT NE
KGVT 240610Z AUTO 18010KT 10SM SCT023 SCT036 19/14 A3005 RMK AO2 LTG DSNT N
KGVT 240550Z AUTO 17010KT 10SM CLR 19/14 A3005 RMK AO2